Toowoomba, Australia

12:01 AM AEST on December 11, 2016 (GMT +1000)
South Toowoomba | | Change Station

Elev 1998 ft 27.57 °S, 151.95 °E | Updated 28 seconds ago

Partly Cloudy
Partly Cloudy
63.0 °F
Feels Like 63.0 °F
N
2.5
Wind Variable Wind from SE
Gusts 4.9 mph

Today
High -- | Low -- °F
--% Chance of Precip.
Yesterday
High -- | Low -- °F
Precip. -- in
Pressure 30.15 in
Visibility 6.2 miles
Clouds Mostly Cloudy 4200 ft
Overcast 7100 ft
Dew Point 58 °F
Humidity 85%
Rainfall 0.00 in
Snow Depth Not available.
4:49 AM 6:41 PM
Waxing Gibbous, 83% visible
METAR YAMB 101330Z AUTO 11006KT 9999 // BKN042 OVC071 20/16 Q1021
Pressure 30.15 in
Visibility 6.2 miles
Clouds Mostly Cloudy 4200 ft
Overcast 7100 ft
Dew Point 58 °F
Humidity 85%
Rainfall 0.00 in
Snow Depth Not available.
4:49 AM 6:41 PM
Waxing Gibbous, 83% visible
METAR YAMB 101330Z AUTO 11006KT 9999 // BKN042 OVC071 20/16 Q1021

10-Day Weather Forecast

×

Almanac

Astronomy

Dec. 11, 2016 Rise Set
Actual Time
Civil Twilight
Nautical Twilight
Astronomical Twilight
Moon
Length of Visible Light
Length of Day
Tomorrow will be .
, % of the Moon is Illuminated

Today's Extremes

Country Highs Country Lows

Community

WunderPhotos

Upload Photos

1,956,549 photos uploaded!

WunderBlog® & News

Nearby

Air Quality

  Air Quality AQ Index Pollutant
Not available.

Snow Depth

Station Depth Elevation

Earthquake Activity

City Distance Mag. Time & Date
Minimum magnitude displayed is 2.5.

Coastal Water Temperatures

Place Temperature

Stations

Nearby Weather Stations

Station Location Temp. Windchill Dew Point Humidity Wind Precip. Elev Updated Type